Latest Weather Observations for Edinburgh

IDS60801

Issued at 8:11 pm CDT Sunday 29 March 2020 (issued every 10 minutes, with the page automatically refreshed every 10 minutes)

About weather observations | Map of weather stations | Latest weather observations for SA | Other Formats
Station Details ID: 023083 Name: EDINBURGH RAAF Lat: -34.71 Lon: 138.62 Height: 16.54 m
Data from the previous 72 hours. | See also: Recent months at Edinburgh
Date/Time
CDT
Temp
°C
App
Temp
°C
Dew
Point
°C
Rel
Hum
%
Delta-T
°C
Wind Press
QNH
hPa
Press
MSL
hPa
Rain since
9am
mm
Dir  Spd
km/h
Gust
km/h
Spd
kts
Gust
kts
29/08:00pm 18.9 17.6 12.4 66 3.6 SW 11 15 6 8 1013.1 1013.0 0.0
29/07:30pm 19.6 17.0 12.1 62 4.2 SW 17 20 9 11 1012.6 1012.5 0.0
29/07:00pm 20.5 17.4 11.7 57 4.9 SW 19 20 10 11 1012.4 1012.3 0.0
29/06:30pm 21.3 18.8 12.4 57 5.0 SW 17 20 9 11 1012.0 1011.9 0.0
29/06:00pm 21.4 19.0 12.5 57 5.0 SW 17 20 9 11 1011.7 1011.6 0.0
29/05:30pm 21.8 18.9 12.4 55 5.3 SW 19 22 10 12 1011.3 1011.2 0.0
29/05:00pm 22.6 19.9 11.7 50 6.1 SW 17 22 9 12 1011.1 1011.0 0.0
29/04:30pm 22.9 19.4 11.0 47 6.6 WSW 20 28 11 15 1010.6 1010.5 0.0
29/04:00pm 23.3 20.6 11.7 48 6.5 WSW 17 26 9 14 1010.6 1010.5 0.0
29/03:30pm 24.0 20.5 11.0 44 7.3 SW 20 30 11 16 1010.4 1010.3 0.0
29/03:00pm 23.1 19.8 11.5 48 6.5 WSW 20 32 11 17 1010.7 1010.6 0.0
29/02:30pm 23.7 20.8 13.0 51 6.2 SW 20 30 11 16 1010.8 1010.7 0.0
29/02:00pm 22.8 19.0 12.4 52 5.9 SSW 24 32 13 17 1010.9 1010.8 0.0
29/01:30pm 23.3 19.2 13.8 55 5.6 SW 28 37 15 20 1010.9 1010.8 0.0
29/01:00pm 23.2 18.5 11.9 49 6.4 WSW 28 35 15 19 1011.1 1011.0 0.0
29/12:30pm 22.5 18.1 14.1 59 4.9 WSW 30 37 16 20 1010.9 1010.8 0.0
29/12:00pm 23.0 19.5 14.6 59 5.0 WSW 26 35 14 19 1010.9 1010.8 0.0
29/11:30am 23.2 19.3 15.5 62 4.6 SW 30 35 16 19 1010.9 1010.8 0.0
29/11:09am 23.0 17.7 11.1 47 6.6 W 30 44 16 24 1010.7 1010.6 0.0
29/11:00am 24.0 19.9 8.0 36 8.5 WNW 19 26 10 14 1010.7 1010.6 0.0
29/10:30am 22.6 18.6 8.3 40 7.6 NNE 19 22 10 12 1010.2 1010.1 0.0
29/10:00am 21.2 17.5 7.8 42 7.0 NNE 17 20 9 11 1010.7 1010.6 0.0
29/09:30am 20.6 17.6 9.2 48 6.1 NNE 15 20 8 11 1010.2 1010.1 0.0
29/09:00am 18.9 15.8 10.2 57 4.7 NE 17 24 9 13 1010.4 1010.3 0.0
29/08:45am 20.3 16.0 8.0 45 6.4 N 20 30 11 16 1010.1 1010.0 0.0
29/08:30am 20.6 19.8 8.3 45 6.4 ESE 2 7 1 4 1011.0 1010.9 0.0
29/08:00am 20.7 18.5 8.0 44 6.6 E 9 13 5 7 1010.6 1010.5 0.0
29/07:30am 19.9 18.8 10.0 53 5.3 NW 6 11 3 6 1011.0 1010.9 0.0
29/07:00am 21.8 16.8 1.5 26 9.4 NW 17 24 9 13 1010.8 1010.7 0.0
29/06:30am 23.6 19.6 0.7 22 10.6 N 11 15 6 8 1008.9 1008.8 0.0
29/06:00am 23.7 18.4 -0.6 20 11.0 NNE 17 22 9 12 1008.1 1008.1 0.0
29/05:30am 24.3 17.5 -1.5 18 11.5 NE 24 32 13 17 1007.3 1007.3 0.0
29/05:00am 23.9 17.7 -3.4 16 11.7 NE 20 26 11 14 1007.3 1007.3 0.0
29/04:30am 23.5 17.1 -4.6 15 11.7 NE 20 28 11 15 1007.3 1007.3 0.0
29/04:00am 22.3 15.9 -4.7 16 11.1 NE 20 26 11 14 1007.4 1007.4 0.0
29/03:30am 21.7 15.3 -5.2 16 10.9 NE 20 22 11 12 1007.5 1007.5 0.0
29/03:00am 21.8 15.4 -5.1 16 10.9 NE 20 22 11 12 1007.8 1007.8 0.0
29/02:30am 22.0 15.8 -4.9 16 11.0 NE 19 20 10 11 1008.2 1008.2 0.0
29/02:00am 21.9 16.1 -5.0 16 10.9 NE 17 19 9 10 1008.5 1008.5 0.0
29/01:30am 22.0 15.8 -4.9 16 11.0 NE 19 22 10 12 1008.5 1008.5 0.0
29/01:00am 22.3 15.9 -4.7 16 11.1 NE 20 24 11 13 1008.8 1008.7 0.0
29/12:30am 22.1 15.7 -4.9 16 11.1 NE 20 24 11 13 1009.1 1009.0 0.0
29/12:00am 21.4 16.1 -3.9 18 10.5 ENE 15 19 8 10 1009.5 1009.4 0.0
 
Date/Time
CDT
Temp
°C
App
Temp
°C
Dew
Point
°C
Rel
Hum
%
Delta-T
°C
Wind Press
QNH
hPa
Press
MSL
hPa
Rain since
9am
mm
Dir  Spd
km/h
Gust
km/h
Spd
kts
Gust
kts
28/11:30pm 19.6 14.7 -3.3 21 9.4 ENE 13 15 7 8 1010.4 1010.3 0.0
28/11:00pm 20.0 15.1 -3.0 21 9.6 NE 13 15 7 8 1010.7 1010.6 0.0
28/10:30pm 21.9 17.1 -2.7 19 10.5 ENE 13 15 7 8 1010.9 1010.8 0.0
28/10:00pm 21.6 16.8 -2.3 20 10.2 ENE 13 15 7 8 1011.2 1011.1 0.0
28/09:30pm 22.7 17.9 -2.8 18 10.9 NE 13 15 7 8 1011.6 1011.5 0.0
28/09:00pm 22.8 18.7 -2.7 18 11.0 NNE 9 9 5 5 1011.9 1011.8 0.0
28/08:30pm 23.3 19.3 -2.3 18 11.1 NE 9 11 5 6 1011.6 1011.5 0.0
28/08:00pm 24.4 21.0 -2.2 17 11.7 NNE 6 7 3 4 1011.4 1011.3 0.0
28/07:30pm 24.8 20.7 -2.7 16 12.0 WNW 9 11 5 6 1011.4 1011.3 0.0
28/07:00pm 27.0 21.3 -3.7 13 13.4 WNW 17 20 9 11 1011.4 1011.3 0.0
28/06:30pm 28.9 22.7 -3.3 12 14.4 WNW 20 33 11 18 1011.3 1011.2 0.0
28/06:00pm 29.0 22.3 -1.2 14 14.0 W 24 30 13 16 1011.4 1011.3 0.0
28/05:30pm 29.8 23.4 -1.5 13 14.6 W 22 28 12 15 1011.4 1011.3 0.0
28/05:00pm 29.9 23.5 -1.5 13 14.6 WSW 22 32 12 17 1011.4 1011.3 0.0
28/04:30pm 30.0 23.3 -1.4 13 14.6 W 24 33 13 18 1011.6 1011.5 0.0
28/04:00pm 30.9 23.5 -0.7 13 15.0 W 28 35 15 19 1011.9 1011.8 0.0
28/03:30pm 31.5 25.4 -3.8 10 16.0 NNW 19 30 10 16 1012.2 1012.1 0.0
28/03:00pm 31.3 24.5 -1.5 12 15.4 NNW 24 43 13 23 1012.4 1012.3 0.0
28/02:30pm 30.9 25.2 0.3 14 14.8 NNW 20 30 11 16 1012.7 1012.6 0.0
28/02:00pm 30.7 25.1 1.1 15 14.5 WNW 20 37 11 20 1013.4 1013.3 0.0
28/01:30pm 30.5 24.6 1.9 16 14.2 NW 22 32 12 17 1013.8 1013.7 0.0
28/01:00pm 30.0 24.9 3.1 18 13.6 NNW 19 33 10 18 1014.4 1014.3 0.0
28/12:30pm 30.3 23.9 3.4 18 13.6 N 26 35 14 19 1014.9 1014.8 0.0
28/12:00pm 29.9 24.1 4.5 20 13.1 NNW 24 35 13 19 1015.2 1015.1 0.0
28/11:30am 28.9 24.0 5.1 22 12.3 NNE 20 28 11 15 1015.6 1015.5 0.0
28/11:00am 28.4 24.7 4.6 22 12.2 N 13 19 7 10 1016.0 1015.9 0.0
28/10:30am 27.3 21.3 0.9 18 12.5 NNE 22 28 12 15 1016.3 1016.2 0.0
28/10:00am 25.6 19.5 0.3 19 11.8 NE 22 28 12 15 1016.5 1016.4 0.0
28/09:30am 24.1 18.9 0.4 21 10.9 NNE 17 24 9 13 1016.5 1016.4 0.0
28/09:00am 19.3 16.4 1.3 30 8.1 NNE 6 7 3 4 1016.6 1016.5 0.0
28/08:30am 15.6 12.3 0.2 35 6.6 NE 7 7 4 4 1016.7 1016.6 0.0
28/08:00am 13.4 10.0 -0.3 39 5.7 NE 7 15 4 8 1016.7 1016.6 0.0
28/07:30am 11.9 8.6 0.1 44 4.8 NE 7 9 4 5 1016.4 1016.3 0.0
28/07:00am 13.3 9.9 -0.7 38 5.7 NE 7 9 4 5 1016.3 1016.2 0.0
28/06:30am 14.2 10.4 -0.6 36 6.1 ENE 9 9 5 5 1016.3 1016.2 0.0
28/06:00am 13.7 9.2 -0.3 38 5.8 NE 13 13 7 7 1016.2 1016.1 0.0
28/05:30am 14.3 9.8 -0.2 37 6.0 ENE 13 15 7 8 1016.3 1016.2 0.0
28/05:00am 14.1 9.6 0.0 38 5.9 ENE 13 17 7 9 1016.4 1016.3 0.0
28/04:30am 14.2 9.7 -0.3 37 6.0 NE 13 15 7 8 1016.4 1016.3 0.0
28/04:00am 14.6 10.1 -0.3 36 6.2 ENE 13 15 7 8 1016.5 1016.4 0.0
28/03:30am 14.3 9.9 0.6 39 5.8 ENE 13 15 7 8 1016.7 1016.6 0.0
28/03:00am 14.8 11.1 -0.1 36 6.3 ENE 9 11 5 6 1017.2 1017.1 0.0
28/02:30am 15.9 11.8 0.1 34 6.7 ENE 11 13 6 7 1017.5 1017.4 0.0
28/02:00am 13.7 9.9 1.7 44 5.2 NE 11 13 6 7 1017.8 1017.7 0.0
28/01:30am 14.1 10.3 1.7 43 5.4 ENE 11 13 6 7 1017.8 1017.7 0.0
28/01:00am 14.9 11.8 1.1 39 6.0 ENE 7 9 4 5 1018.2 1018.1 0.0
28/12:30am 14.1 9.5 1.4 42 5.5 NNW 15 22 8 12 1018.6 1018.5 0.0
28/12:00am 15.3 11.9 1.8 40 5.9 NE 9 9 5 5 1018.5 1018.4 0.0
 
Date/Time
CDT
Temp
°C
App
Temp
°C
Dew
Point
°C
Rel
Hum
%
Delta-T
°C
Wind Press
QNH
hPa
Press
MSL
hPa
Rain since
9am
mm
Dir  Spd
km/h
Gust
km/h
Spd
kts
Gust
kts
27/11:30pm 16.7 13.4 2.7 39 6.3 NE 9 13 5 7 1018.7 1018.6 0.0
27/11:00pm 15.9 13.3 4.0 45 5.5 NNE 7 9 4 5 1018.8 1018.7 0.0
27/10:30pm 16.4 13.2 2.8 40 6.2 NE 9 11 5 6 1018.7 1018.6 0.0
27/10:00pm 18.0 15.2 2.3 35 7.1 E 6 7 3 4 1018.7 1018.6 0.0
27/09:30pm 18.9 16.1 3.1 35 7.3 E 7 9 4 5 1018.7 1018.6 0.0
27/09:00pm 18.6 17.0 4.4 39 6.8 NE 2 6 1 3 1018.7 1018.6 0.0
27/08:30pm 19.0 15.9 3.6 36 7.2 WSW 9 9 5 5 1018.6 1018.5 0.0
27/08:00pm 19.5 16.8 2.4 32 7.9 WSW 6 7 3 4 1018.3 1018.2 0.0
27/07:30pm 22.0 18.7 2.7 28 9.1 SW 9 13 5 7 1018.2 1018.1 0.0
27/07:00pm 24.2 20.6 2.9 25 10.3 SSW 11 15 6 8 1018.1 1018.0 0.0
27/06:30pm 25.0 20.1 4.2 26 10.3 SSW 19 22 10 12 1018.0 1017.9 0.0
27/06:00pm 26.0 21.4 3.9 24 11.0 SSW 17 20 9 11 1017.9 1017.8 0.0
27/05:30pm 26.0 20.9 3.3 23 11.2 SSW 19 24 10 13 1018.0 1017.9 0.0
27/05:00pm 25.6 20.0 3.6 24 10.9 SW 22 28 12 15 1018.2 1018.1 0.0
27/04:30pm 25.7 20.5 5.3 27 10.4 SW 22 28 12 15 1018.4 1018.3 0.0
27/04:00pm 26.1 20.7 4.6 25 10.8 SW 22 30 12 16 1018.7 1018.6 0.0
27/03:30pm 26.7 20.9 6.2 27 10.7 W 26 32 14 17 1018.9 1018.8 0.0
27/03:00pm 27.8 23.7 4.2 22 11.9 NW 15 24 8 13 1019.1 1019.0 0.0
27/02:30pm 28.5 25.2 -1.6 14 13.8 NW 6 13 3 7 1019.5 1019.4 0.0
27/02:00pm 27.6 23.8 -0.5 16 13.1 E 9 15 5 8 1019.9 1019.8 0.0
27/01:30pm 26.9 23.2 -0.2 17 12.6 ESE 9 17 5 9 1020.2 1020.1 0.0
27/01:00pm 26.4 23.4 0.9 19 12.1 NNE 6 15 3 8 1020.8 1020.7 0.0
27/12:30pm 25.9 22.3 0.5 19 11.8 NE 9 17 5 9 1021.3 1021.2 0.0
27/12:00pm 24.2 21.7 3.5 26 10.1 ENE 6 9 3 5 1021.8 1021.7 0.0
27/11:30am 22.8 21.8 5.7 33 8.6 CALM 0 6 0 3 1022.2 1022.1 0.0
27/11:00am 20.0 18.7 6.0 40 7.0 SSW 2 7 1 4 1022.6 1022.5 0.0
27/10:30am 19.0 18.3 6.8 45 6.1 CALM 0 0 0 0 1022.7 1022.6 0.0
27/10:00am 18.3 17.6 7.1 48 5.6 CALM 0 0 0 0 1022.8 1022.7 0.0
27/09:30am 14.9 13.9 7.5 61 3.6 NE 2 7 1 4 1022.9 1022.8 0.0
27/09:00am 12.9 10.9 6.9 67 2.9 NE 7 9 4 5 1022.8 1022.7 0.0
27/08:30am 11.3 9.7 6.4 72 2.3 NNE 4 7 2 4 1022.8 1022.7 0.0
27/08:00am 9.5 7.2 5.7 77 1.7 NNE 7 7 4 4 1022.6 1022.5 0.0
27/07:30am 8.7 7.5 4.7 76 1.8 CALM 0 0 0 0 1022.3 1022.2 0.0
27/07:00am 10.3 8.6 6.1 75 1.9 E 4 6 2 3 1022.1 1022.0 0.0
27/06:30am 10.3 8.4 6.5 77 1.8 ESE 6 6 3 3 1022.0 1021.9 0.0
27/06:00am 10.2 9.4 6.5 78 1.7 CALM 0 2 0 1 1021.8 1021.7 0.0
27/05:30am 9.7 8.3 5.7 76 1.8 W 2 7 1 4 1021.6 1021.5 0.0
27/05:00am 9.5 8.6 5.9 78 1.7 CALM 0 0 0 0 1021.5 1021.4 0.0
27/04:30am 9.7 7.3 5.3 74 2.0 NE 7 9 4 5 1021.4 1021.3 0.0
27/04:00am 11.5 9.5 7.0 74 2.1 NE 7 9 4 5 1021.5 1021.4 0.0
27/03:30am 11.3 9.3 6.4 72 2.3 NNE 6 6 3 3 1021.9 1021.8 0.0
27/03:00am 11.8 9.9 6.9 72 2.3 N 6 6 3 3 1022.1 1022.0 0.0
27/02:30am 11.4 9.3 5.9 69 2.5 N 6 7 3 4 1022.3 1022.2 0.0
27/02:00am 11.5 10.7 6.4 71 2.4 CALM 0 0 0 0 1022.5 1022.4 0.0
27/01:30am 12.0 11.0 5.6 65 3.0 CALM 0 0 0 0 1022.6 1022.5 0.0
27/01:00am 14.6 14.0 7.4 62 3.5 CALM 0 2 0 1 1022.5 1022.4 0.0
27/12:30am 16.2 14.0 7.7 57 4.2 SE 9 11 5 6 1022.4 1022.3 0.0
27/12:00am 16.5 14.3 7.7 56 4.4 SE 9 13 5 7 1022.5 1022.4 0.0
 
Date/Time
CDT
Temp
°C
App
Temp
°C
Dew
Point
°C
Rel
Hum
%
Delta-T
°C
Wind Press
QNH
hPa
Press
MSL
hPa
Rain since
9am
mm
Dir  Spd
km/h
Gust
km/h
Spd
kts
Gust
kts
26/11:30pm 15.6 14.8 8.1 61 3.8 SE 2 6 1 3 1022.7 1022.6 0.0
26/11:00pm 16.5 14.9 8.0 57 4.3 SE 6 7 3 4 1022.7 1022.6 0.0
26/10:30pm 17.1 15.5 8.0 55 4.6 SE 6 9 3 5 1022.7 1022.6 0.0
26/10:00pm 17.5 15.7 7.8 53 4.9 SE 7 9 4 5 1022.8 1022.7 0.0
26/09:30pm 18.4 15.4 7.5 49 5.5 ESE 13 19 7 10 1022.7 1022.6 0.0
26/09:00pm 19.1 15.6 7.2 46 6.0 ESE 15 20 8 11 1022.6 1022.5 0.0
26/08:30pm 18.1 16.7 9.7 58 4.4 SSE 7 17 4 9 1022.4 1022.3 0.0

Other formats

Comma delimited format used in spreadsheet applications
http://www.bom.gov.au/fwo/IDS60801/IDS60801.95676.axf

JavaScript Object Notation format (JSON) in row-major order
http://www.bom.gov.au/fwo/IDS60801/IDS60801.95676.json

Data quality

Most of these data are generated automatically and are frequently updated. Quality checks on data are not normally performed. It is possible for incorrect values to appear. Refer to information at About Latest Weather Observations and please check the disclaimer before using these data.